Atmore, AL

6:14 PM CST on December 19, 2014 (GMT -0600)
Pensacola Regional | Change Station
CLOSE
Current Station
Airport
Location: Pensacola,
Elevation: 118 ft
Nearby Weather Stations

Elev 118 ft 30.48 °N, 87.19 °W | Updated 21 minutes ago

Rain
Rain
50 °F
Feels Like 50 °F
N
8
Wind Variable Wind from North

Today
High -- | Low -- °F
--% Chance of Precip.
Yesterday
High -- | Low -- °F
Precip. -- in
6:43 AM 4:51 PM
Waning Crescent, 5% visible
Pressure 30.12 in
Visibility 10.0 miles
Clouds Few 6000 ft
Scattered Clouds 9000 ft
Overcast 11000 ft
Dew Point 46 °F
Humidity 86%
Rainfall 0.54 in
Snow Depth Not available.
UV 0 out of 12
Pollen 1.40 out of 12
Air Quality Not available.
Flu Activity Not available.
METAR KPNS 192353Z AUTO 01007KT 10SM FEW060 SCT090 OVC110 10/08 A3011 RMK AO2 RAE46 SLP197 P0004 60010 T01000078 10117 20100 50012

More Conditions Fewer Conditions

Pressure 30.12 in
Visibility 10.0 miles
Clouds Few 6000 ft
Scattered Clouds 9000 ft
Overcast 11000 ft
Dew Point 46 °F
Humidity 86%
Rainfall 0.54 in
Snow Depth Not available.
UV 0 out of 12
Pollen 1.40 out of 12
Air Quality Not available.
Flu Activity Not available.
METAR KPNS 192353Z AUTO 01007KT 10SM FEW060 SCT090 OVC110 10/08 A3011 RMK AO2 RAE46 SLP197 P0004 60010 T01000078 10117 20100 50012

More Conditions Fewer Conditions

10-Day Weather Forecast

Almanac

Astronomy

Dec. 19, 2014 Rise Set
Actual Time
Civil Twilight
Nautical Twilight
Astronomical Twilight
Moon
Length of Visible Light
Length of Day
Tomorrow will be .
, % of the Moon is Illuminated

Today's Extremes

State Highs State Lows

Community

WunderPhotos

Upload Photos

1,779,084 photos uploaded!

WunderBlogs® & News

Nearby

Air Quality

  Air Quality AQ Index Pollutant
Not available.

Snow Depth

Station Depth Elevation

Earthquake Activity

City Distance Mag. Time & Date
Minimum magnitude displayed is 2.5.

Coastal Water Temperatures

Place Temperature

Nearby Weather Stations